North Manheim, Pennsylvania
Current Conditions -  °F | °C
As of 8:58 PM on Tuesday 21 Oct 2014 (Local Time) from KMUI Reporting Station
Broken Clouds Broken Clouds  
Wind Chill: 56°   Ceiling: 6000
Heat Index: 56°   Visibility: 10mi
Dew Point: 52°   Wind: 0mph
Humidity: 86%   Direction: NA
Pressure: 29.9"   Gusts: NA
Location:  40.6882°N, 76.264°W
Report Text: KMUI 220058Z AUTO 00000KT 10SM BKN060 BKN150 BKN170 13/11 A2990 RMK AO2 SLP128 T01330110 $
Loading
Personal Weather Stations






























Interactive Weather Map New forecast layout! Learn more

10-Day Weather Forecast

Advertisements
Track Severe Weather on mobile